<?xml version="1.0" encoding="UTF-8" standalone="no" ?>
<gpx xmlns="http://www.topografix.com/GPX/1/1" xmlns:xsi="http://www.w3.org/2001/XMLSchema-instance" xsi:schemaLocation="http://www.topografix.com/GPX/1/1 http://www.topografix.com/GPX/1/1/gpx.xsd" version="1.1" creator="VisuGPX - https://www.visugpx.com">
  <metadata>
    <name>Venise-Pamir J50 - Azerbaïdjan</name>
    <desc><![CDATA[Que de la 4 voies, mais pas d'autre route possible pour Bakou...         ]]></desc>
  </metadata>
  <trk>
    <name><![CDATA[Venise-Pamir J50 - Azerbaïdjan_1]]></name>
    <trkseg>
      <trkpt lat="40.52197" lon="48.93954">
        <ele>742.9</ele>
        <time>2018-07-21T03:46:27.000Z</time>
      </trkpt>
      <trkpt lat="40.52223" lon="48.9378">
        <ele>754.4</ele>
        <time>2018-07-21T03:47:34.000Z</time>
      </trkpt>
      <trkpt lat="40.52223" lon="48.93444">
        <ele>745.5</ele>
        <time>2018-07-21T03:48:35.000Z</time>
      </trkpt>
      <trkpt lat="40.52159" lon="48.93742">
        <ele>761.2</ele>
        <time>2018-07-21T03:49:36.000Z</time>
      </trkpt>
      <trkpt lat="40.52134" lon="48.94053">
        <ele>767.8</ele>
        <time>2018-07-21T03:50:37.000Z</time>
      </trkpt>
      <trkpt lat="40.52046" lon="48.94302">
        <ele>771.8</ele>
        <time>2018-07-21T03:51:38.000Z</time>
      </trkpt>
      <trkpt lat="40.51918" lon="48.9445">
        <ele>777.4</ele>
        <time>2018-07-21T03:52:39.000Z</time>
      </trkpt>
      <trkpt lat="40.51787" lon="48.94524">
        <ele>788.8</ele>
        <time>2018-07-21T03:53:40.000Z</time>
      </trkpt>
      <trkpt lat="40.5162" lon="48.9452">
        <ele>791.5</ele>
        <time>2018-07-21T03:54:41.000Z</time>
      </trkpt>
      <trkpt lat="40.51423" lon="48.94438">
        <ele>796.3</ele>
        <time>2018-07-21T03:55:42.000Z</time>
      </trkpt>
      <trkpt lat="40.51084" lon="48.94347">
        <ele>786.7</ele>
        <time>2018-07-21T03:56:43.000Z</time>
      </trkpt>
      <trkpt lat="40.50848" lon="48.95074">
        <ele>754.4</ele>
        <time>2018-07-21T03:57:44.000Z</time>
      </trkpt>
      <trkpt lat="40.50549" lon="48.95903">
        <ele>718.1</ele>
        <time>2018-07-21T03:58:45.000Z</time>
      </trkpt>
      <trkpt lat="40.50275" lon="48.96647">
        <ele>689.7</ele>
        <time>2018-07-21T03:59:46.000Z</time>
      </trkpt>
      <trkpt lat="40.50105" lon="48.97344">
        <ele>668.2</ele>
        <time>2018-07-21T04:00:47.000Z</time>
      </trkpt>
      <trkpt lat="40.50012" lon="48.98041">
        <ele>650.8</ele>
        <time>2018-07-21T04:01:47.000Z</time>
      </trkpt>
      <trkpt lat="40.50044" lon="48.98754">
        <ele>632.8</ele>
        <time>2018-07-21T04:02:48.000Z</time>
      </trkpt>
      <trkpt lat="40.50082" lon="48.99502">
        <ele>614.7</ele>
        <time>2018-07-21T04:03:49.000Z</time>
      </trkpt>
      <trkpt lat="40.49963" lon="49.00179">
        <ele>598.2</ele>
        <time>2018-07-21T04:04:50.000Z</time>
      </trkpt>
      <trkpt lat="40.49845" lon="49.00829">
        <ele>587.8</ele>
        <time>2018-07-21T04:05:51.000Z</time>
      </trkpt>
      <trkpt lat="40.49783" lon="49.01474">
        <ele>571.3</ele>
        <time>2018-07-21T04:06:51.000Z</time>
      </trkpt>
      <trkpt lat="40.49772" lon="49.02443">
        <ele>527.7</ele>
        <time>2018-07-21T04:07:52.000Z</time>
      </trkpt>
      <trkpt lat="40.49844" lon="49.03057">
        <ele>528</ele>
        <time>2018-07-21T04:08:53.000Z</time>
      </trkpt>
      <trkpt lat="40.49896" lon="49.03495">
        <ele>523.4</ele>
        <time>2018-07-21T04:09:53.000Z</time>
      </trkpt>
      <trkpt lat="40.49874" lon="49.04168">
        <ele>495.4</ele>
        <time>2018-07-21T04:10:54.000Z</time>
      </trkpt>
      <trkpt lat="40.4955" lon="49.04707">
        <ele>488.7</ele>
        <time>2018-07-21T04:11:55.000Z</time>
      </trkpt>
      <trkpt lat="40.49294" lon="49.05261">
        <ele>482.2</ele>
        <time>2018-07-21T04:12:55.000Z</time>
      </trkpt>
      <trkpt lat="40.49038" lon="49.05665">
        <ele>475.3</ele>
        <time>2018-07-21T04:13:56.000Z</time>
      </trkpt>
      <trkpt lat="40.48571" lon="49.05992">
        <ele>455</ele>
        <time>2018-07-21T04:14:57.000Z</time>
      </trkpt>
      <trkpt lat="40.48194" lon="49.06304">
        <ele>461</ele>
        <time>2018-07-21T04:15:58.000Z</time>
      </trkpt>
      <trkpt lat="40.48017" lon="49.06748">
        <ele>464</ele>
        <time>2018-07-21T04:16:59.000Z</time>
      </trkpt>
      <trkpt lat="40.47912" lon="49.07292">
        <ele>455.8</ele>
        <time>2018-07-21T04:18:00.000Z</time>
      </trkpt>
      <trkpt lat="40.478" lon="49.07994">
        <ele>441.3</ele>
        <time>2018-07-21T04:19:01.000Z</time>
      </trkpt>
      <trkpt lat="40.47689" lon="49.08399">
        <ele>448.1</ele>
        <time>2018-07-21T04:20:02.000Z</time>
      </trkpt>
      <trkpt lat="40.47642" lon="49.08572">
        <ele>445.6</ele>
        <time>2018-07-21T04:23:03.000Z</time>
      </trkpt>
      <trkpt lat="40.47464" lon="49.09238">
        <ele>424</ele>
        <time>2018-07-21T04:24:03.000Z</time>
      </trkpt>
      <trkpt lat="40.47459" lon="49.09949">
        <ele>417.6</ele>
        <time>2018-07-21T04:25:04.000Z</time>
      </trkpt>
      <trkpt lat="40.47411" lon="49.10498">
        <ele>415.5</ele>
        <time>2018-07-21T04:26:05.000Z</time>
      </trkpt>
      <trkpt lat="40.47384" lon="49.10939">
        <ele>421.3</ele>
        <time>2018-07-21T04:27:06.000Z</time>
      </trkpt>
      <trkpt lat="40.47395" lon="49.11379">
        <ele>422.8</ele>
        <time>2018-07-21T04:28:07.000Z</time>
      </trkpt>
      <trkpt lat="40.47429" lon="49.1199">
        <ele>415.9</ele>
        <time>2018-07-21T04:29:08.000Z</time>
      </trkpt>
      <trkpt lat="40.47372" lon="49.1247">
        <ele>420.9</ele>
        <time>2018-07-21T04:30:09.000Z</time>
      </trkpt>
      <trkpt lat="40.47276" lon="49.12887">
        <ele>424.4</ele>
        <time>2018-07-21T04:31:10.000Z</time>
      </trkpt>
      <trkpt lat="40.47289" lon="49.13439">
        <ele>420.4</ele>
        <time>2018-07-21T04:32:11.000Z</time>
      </trkpt>
      <trkpt lat="40.47336" lon="49.13801">
        <ele>425.7</ele>
        <time>2018-07-21T04:33:12.000Z</time>
      </trkpt>
      <trkpt lat="40.4739" lon="49.14057">
        <ele>430.7</ele>
        <time>2018-07-21T04:34:12.000Z</time>
      </trkpt>
      <trkpt lat="40.47444" lon="49.14318">
        <ele>438.7</ele>
        <time>2018-07-21T04:35:13.000Z</time>
      </trkpt>
      <trkpt lat="40.47502" lon="49.14602">
        <ele>442.8</ele>
        <time>2018-07-21T04:36:14.000Z</time>
      </trkpt>
      <trkpt lat="40.47557" lon="49.14896">
        <ele>448.2</ele>
        <time>2018-07-21T04:37:15.000Z</time>
      </trkpt>
      <trkpt lat="40.47601" lon="49.15192">
        <ele>453.3</ele>
        <time>2018-07-21T04:38:16.000Z</time>
      </trkpt>
      <trkpt lat="40.47649" lon="49.15527">
        <ele>456.4</ele>
        <time>2018-07-21T04:39:17.000Z</time>
      </trkpt>
      <trkpt lat="40.47689" lon="49.15816">
        <ele>464.3</ele>
        <time>2018-07-21T04:40:18.000Z</time>
      </trkpt>
      <trkpt lat="40.4773" lon="49.16114">
        <ele>471.3</ele>
        <time>2018-07-21T04:41:19.000Z</time>
      </trkpt>
      <trkpt lat="40.47783" lon="49.16496">
        <ele>471.6</ele>
        <time>2018-07-21T04:42:20.000Z</time>
      </trkpt>
      <trkpt lat="40.47865" lon="49.16916">
        <ele>476.3</ele>
        <time>2018-07-21T04:43:21.000Z</time>
      </trkpt>
      <trkpt lat="40.48006" lon="49.17258">
        <ele>476.7</ele>
        <time>2018-07-21T04:44:22.000Z</time>
      </trkpt>
      <trkpt lat="40.48116" lon="49.17531">
        <ele>484.4</ele>
        <time>2018-07-21T04:45:23.000Z</time>
      </trkpt>
      <trkpt lat="40.48214" lon="49.17762">
        <ele>490.7</ele>
        <time>2018-07-21T04:46:24.000Z</time>
      </trkpt>
      <trkpt lat="40.48282" lon="49.1797">
        <ele>499</ele>
        <time>2018-07-21T04:47:25.000Z</time>
      </trkpt>
      <trkpt lat="40.48324" lon="49.18167">
        <ele>505.9</ele>
        <time>2018-07-21T04:48:26.000Z</time>
      </trkpt>
      <trkpt lat="40.4837" lon="49.18366">
        <ele>510.1</ele>
        <time>2018-07-21T04:49:27.000Z</time>
      </trkpt>
      <trkpt lat="40.48473" lon="49.18632">
        <ele>510.8</ele>
        <time>2018-07-21T04:50:28.000Z</time>
      </trkpt>
      <trkpt lat="40.48605" lon="49.18941">
        <ele>515</ele>
        <time>2018-07-21T04:51:29.000Z</time>
      </trkpt>
      <trkpt lat="40.48687" lon="49.19218">
        <ele>519.7</ele>
        <time>2018-07-21T04:52:30.000Z</time>
      </trkpt>
      <trkpt lat="40.48731" lon="49.19503">
        <ele>527.2</ele>
        <time>2018-07-21T04:53:31.000Z</time>
      </trkpt>
      <trkpt lat="40.48737" lon="49.1986">
        <ele>530.4</ele>
        <time>2018-07-21T04:54:32.000Z</time>
      </trkpt>
      <trkpt lat="40.48716" lon="49.2033">
        <ele>531.5</ele>
        <time>2018-07-21T04:55:33.000Z</time>
      </trkpt>
      <trkpt lat="40.48714" lon="49.20786">
        <ele>531.6</ele>
        <time>2018-07-21T04:56:34.000Z</time>
      </trkpt>
      <trkpt lat="40.48739" lon="49.21067">
        <ele>531.5</ele>
        <time>2018-07-21T04:57:35.000Z</time>
      </trkpt>
      <trkpt lat="40.48774" lon="49.21241">
        <ele>534.9</ele>
        <time>2018-07-21T04:58:36.000Z</time>
      </trkpt>
      <trkpt lat="40.4882" lon="49.21413">
        <ele>549.9</ele>
        <time>2018-07-21T04:59:37.000Z</time>
      </trkpt>
      <trkpt lat="40.48875" lon="49.21578">
        <ele>553.4</ele>
        <time>2018-07-21T05:00:45.000Z</time>
      </trkpt>
      <trkpt lat="40.48935" lon="49.21738">
        <ele>558</ele>
        <time>2018-07-21T05:01:49.000Z</time>
      </trkpt>
      <trkpt lat="40.48996" lon="49.21897">
        <ele>562.7</ele>
        <time>2018-07-21T05:02:50.000Z</time>
      </trkpt>
      <trkpt lat="40.49071" lon="49.22047">
        <ele>564.1</ele>
        <time>2018-07-21T05:11:01.000Z</time>
      </trkpt>
      <trkpt lat="40.49235" lon="49.22409">
        <ele>560.5</ele>
        <time>2018-07-21T05:12:02.000Z</time>
      </trkpt>
      <trkpt lat="40.49253" lon="49.23044">
        <ele>526.2</ele>
        <time>2018-07-21T05:13:03.000Z</time>
      </trkpt>
      <trkpt lat="40.49512" lon="49.23367">
        <ele>471</ele>
        <time>2018-07-21T05:14:04.000Z</time>
      </trkpt>
      <trkpt lat="40.4974" lon="49.23817">
        <ele>412.6</ele>
        <time>2018-07-21T05:15:05.000Z</time>
      </trkpt>
      <trkpt lat="40.49692" lon="49.24626">
        <ele>377.3</ele>
        <time>2018-07-21T05:16:06.000Z</time>
      </trkpt>
      <trkpt lat="40.49799" lon="49.25192">
        <ele>361.1</ele>
        <time>2018-07-21T05:17:07.000Z</time>
      </trkpt>
      <trkpt lat="40.49919" lon="49.25688">
        <ele>355.6</ele>
        <time>2018-07-21T05:18:08.000Z</time>
      </trkpt>
      <trkpt lat="40.50091" lon="49.26122">
        <ele>348.7</ele>
        <time>2018-07-21T05:19:09.000Z</time>
      </trkpt>
      <trkpt lat="40.50189" lon="49.26641">
        <ele>332.5</ele>
        <time>2018-07-21T05:20:10.000Z</time>
      </trkpt>
      <trkpt lat="40.50202" lon="49.27153">
        <ele>326.9</ele>
        <time>2018-07-21T05:21:11.000Z</time>
      </trkpt>
      <trkpt lat="40.5016" lon="49.27532">
        <ele>327.8</ele>
        <time>2018-07-21T05:22:12.000Z</time>
      </trkpt>
      <trkpt lat="40.50142" lon="49.27799">
        <ele>331.7</ele>
        <time>2018-07-21T05:23:13.000Z</time>
      </trkpt>
      <trkpt lat="40.50093" lon="49.28144">
        <ele>335.2</ele>
        <time>2018-07-21T05:24:14.000Z</time>
      </trkpt>
      <trkpt lat="40.50025" lon="49.28605">
        <ele>330.3</ele>
        <time>2018-07-21T05:25:15.000Z</time>
      </trkpt>
      <trkpt lat="40.49952" lon="49.29099">
        <ele>321.5</ele>
        <time>2018-07-21T05:26:16.000Z</time>
      </trkpt>
      <trkpt lat="40.49898" lon="49.29603">
        <ele>314.2</ele>
        <time>2018-07-21T05:27:17.000Z</time>
      </trkpt>
      <trkpt lat="40.49841" lon="49.30163">
        <ele>291.4</ele>
        <time>2018-07-21T05:28:18.000Z</time>
      </trkpt>
      <trkpt lat="40.4979" lon="49.30655">
        <ele>284.7</ele>
        <time>2018-07-21T05:29:18.000Z</time>
      </trkpt>
      <trkpt lat="40.49727" lon="49.31084">
        <ele>284.1</ele>
        <time>2018-07-21T05:30:19.000Z</time>
      </trkpt>
      <trkpt lat="40.49648" lon="49.31455">
        <ele>286.5</ele>
        <time>2018-07-21T05:31:20.000Z</time>
      </trkpt>
      <trkpt lat="40.49578" lon="49.31785">
        <ele>287.8</ele>
        <time>2018-07-21T05:32:21.000Z</time>
      </trkpt>
      <trkpt lat="40.49502" lon="49.32152">
        <ele>285.8</ele>
        <time>2018-07-21T05:33:22.000Z</time>
      </trkpt>
      <trkpt lat="40.49445" lon="49.32578">
        <ele>278.8</ele>
        <time>2018-07-21T05:34:23.000Z</time>
      </trkpt>
      <trkpt lat="40.49427" lon="49.32923">
        <ele>279.6</ele>
        <time>2018-07-21T05:35:24.000Z</time>
      </trkpt>
      <trkpt lat="40.49437" lon="49.33366">
        <ele>274</ele>
        <time>2018-07-21T05:36:25.000Z</time>
      </trkpt>
      <trkpt lat="40.49457" lon="49.3395">
        <ele>264</ele>
        <time>2018-07-21T05:37:26.000Z</time>
      </trkpt>
      <trkpt lat="40.49471" lon="49.34391">
        <ele>261.3</ele>
        <time>2018-07-21T05:38:27.000Z</time>
      </trkpt>
      <trkpt lat="40.49471" lon="49.34829">
        <ele>259.1</ele>
        <time>2018-07-21T05:39:28.000Z</time>
      </trkpt>
      <trkpt lat="40.49472" lon="49.35244">
        <ele>258.5</ele>
        <time>2018-07-21T05:40:29.000Z</time>
      </trkpt>
      <trkpt lat="40.49472" lon="49.35686">
        <ele>258.6</ele>
        <time>2018-07-21T05:41:30.000Z</time>
      </trkpt>
      <trkpt lat="40.4944" lon="49.36152">
        <ele>255.2</ele>
        <time>2018-07-21T05:42:31.000Z</time>
      </trkpt>
      <trkpt lat="40.4938" lon="49.36623">
        <ele>253.3</ele>
        <time>2018-07-21T05:43:32.000Z</time>
      </trkpt>
      <trkpt lat="40.4933" lon="49.37017">
        <ele>258.4</ele>
        <time>2018-07-21T05:44:33.000Z</time>
      </trkpt>
      <trkpt lat="40.49291" lon="49.3732">
        <ele>264.3</ele>
        <time>2018-07-21T05:45:34.000Z</time>
      </trkpt>
      <trkpt lat="40.49253" lon="49.37623">
        <ele>264.5</ele>
        <time>2018-07-21T05:46:35.000Z</time>
      </trkpt>
      <trkpt lat="40.49193" lon="49.38029">
        <ele>266.4</ele>
        <time>2018-07-21T05:47:36.000Z</time>
      </trkpt>
      <trkpt lat="40.49101" lon="49.38509">
        <ele>265.1</ele>
        <time>2018-07-21T05:48:37.000Z</time>
      </trkpt>
      <trkpt lat="40.49028" lon="49.38962">
        <ele>268.3</ele>
        <time>2018-07-21T05:49:38.000Z</time>
      </trkpt>
      <trkpt lat="40.48978" lon="49.39333">
        <ele>273.4</ele>
        <time>2018-07-21T05:50:39.000Z</time>
      </trkpt>
      <trkpt lat="40.48899" lon="49.39663">
        <ele>275.6</ele>
        <time>2018-07-21T05:51:40.000Z</time>
      </trkpt>
      <trkpt lat="40.48746" lon="49.40034">
        <ele>277.2</ele>
        <time>2018-07-21T05:52:41.000Z</time>
      </trkpt>
      <trkpt lat="40.48626" lon="49.403">
        <ele>284.4</ele>
        <time>2018-07-21T05:53:42.000Z</time>
      </trkpt>
      <trkpt lat="40.48563" lon="49.40476">
        <ele>293.7</ele>
        <time>2018-07-21T05:54:43.000Z</time>
      </trkpt>
      <trkpt lat="40.48517" lon="49.40645">
        <ele>303.2</ele>
        <time>2018-07-21T05:55:46.000Z</time>
      </trkpt>
      <trkpt lat="40.48484" lon="49.40818">
        <ele>311.2</ele>
        <time>2018-07-21T05:56:52.000Z</time>
      </trkpt>
      <trkpt lat="40.4847" lon="49.40996">
        <ele>325.4</ele>
        <time>2018-07-21T05:58:03.000Z</time>
      </trkpt>
      <trkpt lat="40.48472" lon="49.41174">
        <ele>336.5</ele>
        <time>2018-07-21T05:59:12.000Z</time>
      </trkpt>
      <trkpt lat="40.4848" lon="49.41364">
        <ele>338.4</ele>
        <time>2018-07-21T06:00:13.000Z</time>
      </trkpt>
      <trkpt lat="40.48502" lon="49.41642">
        <ele>339.8</ele>
        <time>2018-07-21T06:01:14.000Z</time>
      </trkpt>
      <trkpt lat="40.48531" lon="49.42071">
        <ele>336</ele>
        <time>2018-07-21T06:02:14.000Z</time>
      </trkpt>
      <trkpt lat="40.48554" lon="49.42461">
        <ele>338</ele>
        <time>2018-07-21T06:03:15.000Z</time>
      </trkpt>
      <trkpt lat="40.48542" lon="49.42827">
        <ele>340.1</ele>
        <time>2018-07-21T06:04:16.000Z</time>
      </trkpt>
      <trkpt lat="40.48493" lon="49.43145">
        <ele>334.8</ele>
        <time>2018-07-21T06:05:17.000Z</time>
      </trkpt>
      <trkpt lat="40.48455" lon="49.43317">
        <ele>325.8</ele>
        <time>2018-07-21T06:33:43.000Z</time>
      </trkpt>
      <trkpt lat="40.48227" lon="49.43989">
        <ele>299.2</ele>
        <time>2018-07-21T06:34:44.000Z</time>
      </trkpt>
      <trkpt lat="40.4792" lon="49.4448">
        <ele>287.9</ele>
        <time>2018-07-21T06:35:45.000Z</time>
      </trkpt>
      <trkpt lat="40.47628" lon="49.45081">
        <ele>265.5</ele>
        <time>2018-07-21T06:36:46.000Z</time>
      </trkpt>
      <trkpt lat="40.47498" lon="49.45601">
        <ele>264.3</ele>
        <time>2018-07-21T06:37:47.000Z</time>
      </trkpt>
      <trkpt lat="40.4757" lon="49.46026">
        <ele>254.9</ele>
        <time>2018-07-21T06:38:48.000Z</time>
      </trkpt>
      <trkpt lat="40.47549" lon="49.46341">
        <ele>253.8</ele>
        <time>2018-07-21T06:39:49.000Z</time>
      </trkpt>
      <trkpt lat="40.47469" lon="49.46652">
        <ele>243.7</ele>
        <time>2018-07-21T06:41:09.000Z</time>
      </trkpt>
      <trkpt lat="40.47556" lon="49.47282">
        <ele>216.9</ele>
        <time>2018-07-21T06:42:10.000Z</time>
      </trkpt>
      <trkpt lat="40.47956" lon="49.47351">
        <ele>180</ele>
        <time>2018-07-21T06:43:11.000Z</time>
      </trkpt>
      <trkpt lat="40.48338" lon="49.47531">
        <ele>153</ele>
        <time>2018-07-21T06:44:12.000Z</time>
      </trkpt>
      <trkpt lat="40.48615" lon="49.47762">
        <ele>136.9</ele>
        <time>2018-07-21T06:45:13.000Z</time>
      </trkpt>
      <trkpt lat="40.48832" lon="49.48073">
        <ele>124.7</ele>
        <time>2018-07-21T06:46:13.000Z</time>
      </trkpt>
      <trkpt lat="40.48974" lon="49.48318">
        <ele>119</ele>
        <time>2018-07-21T06:46:55.000Z</time>
      </trkpt>
      <trkpt lat="40.49132" lon="49.48601">
        <ele>112.4</ele>
        <time>2018-07-21T06:47:56.000Z</time>
      </trkpt>
      <trkpt lat="40.49262" lon="49.48868">
        <ele>113</ele>
        <time>2018-07-21T06:48:57.000Z</time>
      </trkpt>
      <trkpt lat="40.49362" lon="49.49081">
        <ele>110.9</ele>
        <time>2018-07-21T06:49:58.000Z</time>
      </trkpt>
      <trkpt lat="40.4941" lon="49.49309">
        <ele>113.1</ele>
        <time>2018-07-21T06:50:59.000Z</time>
      </trkpt>
      <trkpt lat="40.49412" lon="49.49487">
        <ele>112.3</ele>
        <time>2018-07-21T06:52:19.000Z</time>
      </trkpt>
      <trkpt lat="40.49387" lon="49.49822">
        <ele>113.1</ele>
        <time>2018-07-21T06:53:20.000Z</time>
      </trkpt>
      <trkpt lat="40.49343" lon="49.50266">
        <ele>111.7</ele>
        <time>2018-07-21T06:54:21.000Z</time>
      </trkpt>
      <trkpt lat="40.49356" lon="49.5068">
        <ele>115.7</ele>
        <time>2018-07-21T06:55:22.000Z</time>
      </trkpt>
      <trkpt lat="40.49422" lon="49.50985">
        <ele>126.7</ele>
        <time>2018-07-21T06:56:23.000Z</time>
      </trkpt>
      <trkpt lat="40.49493" lon="49.51307">
        <ele>125</ele>
        <time>2018-07-21T06:57:24.000Z</time>
      </trkpt>
      <trkpt lat="40.49559" lon="49.51666">
        <ele>115</ele>
        <time>2018-07-21T06:58:25.000Z</time>
      </trkpt>
      <trkpt lat="40.49438" lon="49.52213">
        <ele>97.1</ele>
        <time>2018-07-21T06:59:26.000Z</time>
      </trkpt>
      <trkpt lat="40.49178" lon="49.52858">
        <ele>79.8</ele>
        <time>2018-07-21T07:00:27.000Z</time>
      </trkpt>
      <trkpt lat="40.48955" lon="49.53478">
        <ele>67</ele>
        <time>2018-07-21T07:01:28.000Z</time>
      </trkpt>
      <trkpt lat="40.48846" lon="49.53988">
        <ele>65.8</ele>
        <time>2018-07-21T07:02:29.000Z</time>
      </trkpt>
      <trkpt lat="40.48765" lon="49.54426">
        <ele>66.9</ele>
        <time>2018-07-21T07:03:30.000Z</time>
      </trkpt>
      <trkpt lat="40.48692" lon="49.54842">
        <ele>65.3</ele>
        <time>2018-07-21T07:04:30.000Z</time>
      </trkpt>
      <trkpt lat="40.48599" lon="49.55309">
        <ele>61.6</ele>
        <time>2018-07-21T07:05:31.000Z</time>
      </trkpt>
      <trkpt lat="40.4852" lon="49.55721">
        <ele>61.4</ele>
        <time>2018-07-21T07:06:32.000Z</time>
      </trkpt>
      <trkpt lat="40.48455" lon="49.56081">
        <ele>66.3</ele>
        <time>2018-07-21T07:07:33.000Z</time>
      </trkpt>
      <trkpt lat="40.48389" lon="49.56448">
        <ele>71.7</ele>
        <time>2018-07-21T07:08:34.000Z</time>
      </trkpt>
      <trkpt lat="40.48303" lon="49.56852">
        <ele>67.7</ele>
        <time>2018-07-21T07:09:35.000Z</time>
      </trkpt>
      <trkpt lat="40.482" lon="49.57327">
        <ele>69.1</ele>
        <time>2018-07-21T07:10:36.000Z</time>
      </trkpt>
      <trkpt lat="40.48107" lon="49.57793">
        <ele>65.6</ele>
        <time>2018-07-21T07:11:37.000Z</time>
      </trkpt>
      <trkpt lat="40.4805" lon="49.5817">
        <ele>65.5</ele>
        <time>2018-07-21T07:12:38.000Z</time>
      </trkpt>
      <trkpt lat="40.4801" lon="49.58504">
        <ele>68.9</ele>
        <time>2018-07-21T07:13:39.000Z</time>
      </trkpt>
      <trkpt lat="40.47956" lon="49.58878">
        <ele>71.7</ele>
        <time>2018-07-21T07:14:40.000Z</time>
      </trkpt>
      <trkpt lat="40.47903" lon="49.59282">
        <ele>68.8</ele>
        <time>2018-07-21T07:15:41.000Z</time>
      </trkpt>
      <trkpt lat="40.47847" lon="49.59677">
        <ele>68.3</ele>
        <time>2018-07-21T07:16:42.000Z</time>
      </trkpt>
      <trkpt lat="40.47789" lon="49.60073">
        <ele>71.6</ele>
        <time>2018-07-21T07:17:43.000Z</time>
      </trkpt>
      <trkpt lat="40.47715" lon="49.6048">
        <ele>71.6</ele>
        <time>2018-07-21T07:18:44.000Z</time>
      </trkpt>
      <trkpt lat="40.47654" lon="49.60827">
        <ele>72.3</ele>
        <time>2018-07-21T07:19:45.000Z</time>
      </trkpt>
      <trkpt lat="40.47549" lon="49.61082">
        <ele>74.5</ele>
        <time>2018-07-21T07:20:46.000Z</time>
      </trkpt>
      <trkpt lat="40.47398" lon="49.61426">
        <ele>77.1</ele>
        <time>2018-07-21T07:21:47.000Z</time>
      </trkpt>
      <trkpt lat="40.47276" lon="49.61751">
        <ele>77.8</ele>
        <time>2018-07-21T07:22:48.000Z</time>
      </trkpt>
      <trkpt lat="40.4719" lon="49.6199">
        <ele>82.1</ele>
        <time>2018-07-21T07:23:49.000Z</time>
      </trkpt>
      <trkpt lat="40.47094" lon="49.6227">
        <ele>82.8</ele>
        <time>2018-07-21T07:24:50.000Z</time>
      </trkpt>
      <trkpt lat="40.46996" lon="49.62562">
        <ele>84.5</ele>
        <time>2018-07-21T07:25:51.000Z</time>
      </trkpt>
      <trkpt lat="40.46948" lon="49.62735">
        <ele>78.7</ele>
        <time>2018-07-21T07:48:19.000Z</time>
      </trkpt>
      <trkpt lat="40.46781" lon="49.63197">
        <ele>79.1</ele>
        <time>2018-07-21T07:49:20.000Z</time>
      </trkpt>
      <trkpt lat="40.466" lon="49.63665">
        <ele>78.3</ele>
        <time>2018-07-21T07:50:21.000Z</time>
      </trkpt>
      <trkpt lat="40.46454" lon="49.64066">
        <ele>77.1</ele>
        <time>2018-07-21T07:51:22.000Z</time>
      </trkpt>
      <trkpt lat="40.46314" lon="49.64508">
        <ele>73.3</ele>
        <time>2018-07-21T07:52:22.000Z</time>
      </trkpt>
      <trkpt lat="40.4618" lon="49.64945">
        <ele>69.5</ele>
        <time>2018-07-21T07:53:23.000Z</time>
      </trkpt>
      <trkpt lat="40.46081" lon="49.65257">
        <ele>76.8</ele>
        <time>2018-07-21T07:54:24.000Z</time>
      </trkpt>
      <trkpt lat="40.45992" lon="49.65547">
        <ele>80.2</ele>
        <time>2018-07-21T07:55:25.000Z</time>
      </trkpt>
      <trkpt lat="40.45901" lon="49.6584">
        <ele>84.7</ele>
        <time>2018-07-21T07:56:26.000Z</time>
      </trkpt>
      <trkpt lat="40.45811" lon="49.66138">
        <ele>89.7</ele>
        <time>2018-07-21T07:57:27.000Z</time>
      </trkpt>
      <trkpt lat="40.45704" lon="49.66476">
        <ele>89.3</ele>
        <time>2018-07-21T07:58:28.000Z</time>
      </trkpt>
      <trkpt lat="40.45573" lon="49.66905">
        <ele>86.7</ele>
        <time>2018-07-21T07:59:28.000Z</time>
      </trkpt>
      <trkpt lat="40.45436" lon="49.6737">
        <ele>80.8</ele>
        <time>2018-07-21T08:00:29.000Z</time>
      </trkpt>
      <trkpt lat="40.45317" lon="49.67783">
        <ele>83</ele>
        <time>2018-07-21T08:01:30.000Z</time>
      </trkpt>
      <trkpt lat="40.45226" lon="49.68109">
        <ele>85.3</ele>
        <time>2018-07-21T08:02:31.000Z</time>
      </trkpt>
      <trkpt lat="40.45136" lon="49.68422">
        <ele>89.8</ele>
        <time>2018-07-21T08:03:32.000Z</time>
      </trkpt>
      <trkpt lat="40.45044" lon="49.68763">
        <ele>96.4</ele>
        <time>2018-07-21T08:04:33.000Z</time>
      </trkpt>
      <trkpt lat="40.44927" lon="49.69191">
        <ele>84</ele>
        <time>2018-07-21T08:05:34.000Z</time>
      </trkpt>
      <trkpt lat="40.4478" lon="49.69713">
        <ele>75.6</ele>
        <time>2018-07-21T08:06:35.000Z</time>
      </trkpt>
      <trkpt lat="40.44655" lon="49.7018">
        <ele>73.5</ele>
        <time>2018-07-21T08:07:36.000Z</time>
      </trkpt>
      <trkpt lat="40.44558" lon="49.70702">
        <ele>65.4</ele>
        <time>2018-07-21T08:08:37.000Z</time>
      </trkpt>
      <trkpt lat="40.44499" lon="49.71076">
        <ele>71.2</ele>
        <time>2018-07-21T08:09:38.000Z</time>
      </trkpt>
      <trkpt lat="40.44475" lon="49.71252">
        <ele>71.1</ele>
        <time>2018-07-21T08:12:00.000Z</time>
      </trkpt>
      <trkpt lat="40.44427" lon="49.71552">
        <ele>76.3</ele>
        <time>2018-07-21T08:13:00.000Z</time>
      </trkpt>
      <trkpt lat="40.44377" lon="49.71855">
        <ele>79.4</ele>
        <time>2018-07-21T08:14:01.000Z</time>
      </trkpt>
      <trkpt lat="40.44329" lon="49.72164">
        <ele>85</ele>
        <time>2018-07-21T08:15:02.000Z</time>
      </trkpt>
      <trkpt lat="40.44287" lon="49.72623">
        <ele>82.1</ele>
        <time>2018-07-21T08:16:03.000Z</time>
      </trkpt>
      <trkpt lat="40.44269" lon="49.72993">
        <ele>84.7</ele>
        <time>2018-07-21T08:17:04.000Z</time>
      </trkpt>
      <trkpt lat="40.44256" lon="49.73266">
        <ele>88.8</ele>
        <time>2018-07-21T08:18:05.000Z</time>
      </trkpt>
      <trkpt lat="40.44243" lon="49.73559">
        <ele>93.1</ele>
        <time>2018-07-21T08:19:06.000Z</time>
      </trkpt>
      <trkpt lat="40.44233" lon="49.73867">
        <ele>96.8</ele>
        <time>2018-07-21T08:20:07.000Z</time>
      </trkpt>
      <trkpt lat="40.44219" lon="49.74126">
        <ele>94.9</ele>
        <time>2018-07-21T08:21:08.000Z</time>
      </trkpt>
      <trkpt lat="40.44176" lon="49.74457">
        <ele>95.1</ele>
        <time>2018-07-21T08:22:09.000Z</time>
      </trkpt>
      <trkpt lat="40.441" lon="49.7486">
        <ele>91.2</ele>
        <time>2018-07-21T08:23:10.000Z</time>
      </trkpt>
      <trkpt lat="40.44013" lon="49.75264">
        <ele>94.6</ele>
        <time>2018-07-21T08:24:11.000Z</time>
      </trkpt>
      <trkpt lat="40.43917" lon="49.75715">
        <ele>89.5</ele>
        <time>2018-07-21T08:25:12.000Z</time>
      </trkpt>
      <trkpt lat="40.43748" lon="49.765">
        <ele>58.1</ele>
        <time>2018-07-21T08:26:13.000Z</time>
      </trkpt>
      <trkpt lat="40.43679" lon="49.76796">
        <ele>55.9</ele>
        <time>2018-07-21T08:27:13.000Z</time>
      </trkpt>
      <trkpt lat="40.43645" lon="49.76971">
        <ele>55.1</ele>
        <time>2018-07-21T08:28:58.000Z</time>
      </trkpt>
      <trkpt lat="40.43474" lon="49.77631">
        <ele>28.6</ele>
        <time>2018-07-21T08:29:59.000Z</time>
      </trkpt>
      <trkpt lat="40.43245" lon="49.78188">
        <ele>26.4</ele>
        <time>2018-07-21T08:31:00.000Z</time>
      </trkpt>
      <trkpt lat="40.43089" lon="49.78556">
        <ele>30.9</ele>
        <time>2018-07-21T08:32:01.000Z</time>
      </trkpt>
      <trkpt lat="40.43034" lon="49.78726">
        <ele>37.9</ele>
        <time>2018-07-21T08:33:02.000Z</time>
      </trkpt>
      <trkpt lat="40.42942" lon="49.78875">
        <ele>47.8</ele>
        <time>2018-07-21T08:34:03.000Z</time>
      </trkpt>
      <trkpt lat="40.42817" lon="49.79042">
        <ele>57.8</ele>
        <time>2018-07-21T08:35:04.000Z</time>
      </trkpt>
      <trkpt lat="40.4268" lon="49.79203">
        <ele>56.4</ele>
        <time>2018-07-21T08:36:05.000Z</time>
      </trkpt>
      <trkpt lat="40.4255" lon="49.79363">
        <ele>64.3</ele>
        <time>2018-07-21T08:37:06.000Z</time>
      </trkpt>
      <trkpt lat="40.42442" lon="49.79474">
        <ele>67</ele>
        <time>2018-07-21T08:39:51.000Z</time>
      </trkpt>
      <trkpt lat="40.42286" lon="49.79616">
        <ele>64.4</ele>
        <time>2018-07-21T08:40:52.000Z</time>
      </trkpt>
      <trkpt lat="40.42167" lon="49.79715">
        <ele>67.3</ele>
        <time>2018-07-21T08:41:53.000Z</time>
      </trkpt>
      <trkpt lat="40.41918" lon="49.79855">
        <ele>79.6</ele>
        <time>2018-07-21T08:42:54.000Z</time>
      </trkpt>
      <trkpt lat="40.41746" lon="49.79958">
        <ele>88.2</ele>
        <time>2018-07-21T08:43:55.000Z</time>
      </trkpt>
      <trkpt lat="40.41598" lon="49.80042">
        <ele>100.2</ele>
        <time>2018-07-21T08:44:56.000Z</time>
      </trkpt>
      <trkpt lat="40.4145" lon="49.80118">
        <ele>105.9</ele>
        <time>2018-07-21T08:45:57.000Z</time>
      </trkpt>
      <trkpt lat="40.41257" lon="49.8023">
        <ele>115.3</ele>
        <time>2018-07-21T08:46:58.000Z</time>
      </trkpt>
      <trkpt lat="40.41045" lon="49.80355">
        <ele>116.1</ele>
        <time>2018-07-21T08:47:59.000Z</time>
      </trkpt>
      <trkpt lat="40.40822" lon="49.80499">
        <ele>114.6</ele>
        <time>2018-07-21T08:49:00.000Z</time>
      </trkpt>
      <trkpt lat="40.40498" lon="49.80691">
        <ele>97.6</ele>
        <time>2018-07-21T08:50:01.000Z</time>
      </trkpt>
      <trkpt lat="40.40211" lon="49.80881">
        <ele>88.6</ele>
        <time>2018-07-21T08:51:01.000Z</time>
      </trkpt>
      <trkpt lat="40.3981" lon="49.81304">
        <ele>64.3</ele>
        <time>2018-07-21T08:52:01.000Z</time>
      </trkpt>
      <trkpt lat="40.39576" lon="49.81647">
        <ele>46.9</ele>
        <time>2018-07-21T08:53:02.000Z</time>
      </trkpt>
      <trkpt lat="40.39352" lon="49.82052">
        <ele>37.5</ele>
        <time>2018-07-21T08:54:03.000Z</time>
      </trkpt>
      <trkpt lat="40.39142" lon="49.82304">
        <ele>28.7</ele>
        <time>2018-07-21T08:55:04.000Z</time>
      </trkpt>
      <trkpt lat="40.38789" lon="49.82706">
        <ele>21</ele>
        <time>2018-07-21T08:56:05.000Z</time>
      </trkpt>
      <trkpt lat="40.38432" lon="49.82873">
        <ele>7.6</ele>
        <time>2018-07-21T08:57:06.000Z</time>
      </trkpt>
      <trkpt lat="40.38028" lon="49.83036">
        <ele>-8</ele>
        <time>2018-07-21T08:58:07.000Z</time>
      </trkpt>
      <trkpt lat="40.37706" lon="49.8318">
        <ele>-29.9</ele>
        <time>2018-07-21T08:59:08.000Z</time>
      </trkpt>
      <trkpt lat="40.3757" lon="49.8316">
        <ele>-33</ele>
        <time>2018-07-21T09:05:19.000Z</time>
      </trkpt>
      <trkpt lat="40.37503" lon="49.83316">
        <ele>-30.5</ele>
        <time>2018-07-21T09:07:45.000Z</time>
      </trkpt>
      <trkpt lat="40.3736" lon="49.83403">
        <ele>-28.8</ele>
        <time>2018-07-21T09:08:46.000Z</time>
      </trkpt>
      <trkpt lat="40.37197" lon="49.83465">
        <ele>-26.9</ele>
        <time>2018-07-21T09:09:47.000Z</time>
      </trkpt>
      <trkpt lat="40.37063" lon="49.83429">
        <ele>-24.3</ele>
        <time>2018-07-21T09:13:01.000Z</time>
      </trkpt>
      <trkpt lat="40.36935" lon="49.83488">
        <ele>-26</ele>
        <time>2018-07-21T09:14:35.000Z</time>
      </trkpt>
      <trkpt lat="40.36859" lon="49.83635">
        <ele>-28.1</ele>
        <time>2018-07-21T09:16:08.000Z</time>
      </trkpt>
      <trkpt lat="40.36734" lon="49.83705">
        <ele>-24.4</ele>
        <time>2018-07-21T09:17:24.000Z</time>
      </trkpt>
      <trkpt lat="40.36602" lon="49.83739">
        <ele>-31.5</ele>
        <time>2018-07-21T09:20:43.000Z</time>
      </trkpt>
      <trkpt lat="40.36503" lon="49.83616">
        <ele>-37.7</ele>
        <time>2018-07-21T09:26:54.000Z</time>
      </trkpt>
      <trkpt lat="40.36365" lon="49.83595">
        <ele>-8.4</ele>
        <time>2018-07-21T10:40:02.000Z</time>
      </trkpt>
      <trkpt lat="40.36111" lon="49.83462">
        <ele>-6.4</ele>
        <time>2018-07-21T10:41:03.000Z</time>
      </trkpt>
      <trkpt lat="40.35832" lon="49.83456">
        <ele>-6.9</ele>
        <time>2018-07-21T10:42:04.000Z</time>
      </trkpt>
      <trkpt lat="40.35591" lon="49.83412">
        <ele>-6.1</ele>
        <time>2018-07-21T10:43:05.000Z</time>
      </trkpt>
      <trkpt lat="40.3531" lon="49.83411">
        <ele>-10</ele>
        <time>2018-07-21T10:44:06.000Z</time>
      </trkpt>
      <trkpt lat="40.35036" lon="49.83548">
        <ele>-16.1</ele>
        <time>2018-07-21T10:45:07.000Z</time>
      </trkpt>
      <trkpt lat="40.3481" lon="49.83753">
        <ele>-20.5</ele>
        <time>2018-07-21T10:46:08.000Z</time>
      </trkpt>
      <trkpt lat="40.34652" lon="49.83835">
        <ele>-7.3</ele>
        <time>2018-07-21T10:47:09.000Z</time>
      </trkpt>
      <trkpt lat="40.34622" lon="49.83661">
        <ele>2</ele>
        <time>2018-07-21T10:49:07.000Z</time>
      </trkpt>
      <trkpt lat="40.34784" lon="49.83544">
        <ele>-1.1</ele>
        <time>2018-07-21T10:50:08.000Z</time>
      </trkpt>
      <trkpt lat="40.34898" lon="49.8345">
        <ele>7</ele>
        <time>2018-07-21T10:54:03.000Z</time>
      </trkpt>
      <trkpt lat="40.34763" lon="49.83465">
        <ele>8.4</ele>
        <time>2018-07-21T10:58:06.000Z</time>
      </trkpt>
      <trkpt lat="40.34881" lon="49.83378">
        <ele>9.7</ele>
        <time>2018-07-21T11:04:05.000Z</time>
      </trkpt>
      <trkpt lat="40.34999" lon="49.83285">
        <ele>9.9</ele>
        <time>2018-07-21T11:05:14.000Z</time>
      </trkpt>
      <trkpt lat="40.3486" lon="49.83326">
        <ele>21.1</ele>
        <time>2018-07-21T11:06:47.000Z</time>
      </trkpt>
    </trkseg>
  </trk>
</gpx>